sensor_id;sensor_type;location;lat;lon;timestamp;temperature;humidity
38090;DHT22;23904;52.322;10.232;2023-05-20T00:00:06;13.60;95.90
38090;DHT22;23904;52.322;10.232;2023-05-20T00:02:33;13.50;95.80
38090;DHT22;23904;52.322;10.232;2023-05-20T00:04:58;13.50;95.60
38090;DHT22;23904;52.322;10.232;2023-05-20T00:07:24;13.50;95.90
38090;DHT22;23904;52.322;10.232;2023-05-20T00:09:50;13.50;95.70
38090;DHT22;23904;52.322;10.232;2023-05-20T00:12:16;13.50;95.90
38090;DHT22;23904;52.322;10.232;2023-05-20T00:14:41;13.50;96.10
38090;DHT22;23904;52.322;10.232;2023-05-20T00:17:07;13.40;96.10
38090;DHT22;23904;52.322;10.232;2023-05-20T00:19:32;13.40;96.30
38090;DHT22;23904;52.322;10.232;2023-05-20T00:21:58;13.40;96.40
38090;DHT22;23904;52.322;10.232;2023-05-20T00:24:24;13.40;96.40
38090;DHT22;23904;52.322;10.232;2023-05-20T00:26:50;13.30;96.60
38090;DHT22;23904;52.322;10.232;2023-05-20T00:29:15;13.30;96.80
38090;DHT22;23904;52.322;10.232;2023-05-20T00:31:41;13.30;96.90
38090;DHT22;23904;52.322;10.232;2023-05-20T00:34:08;13.20;97.10
38090;DHT22;23904;52.322;10.232;2023-05-20T00:36:34;13.20;97.30
38090;DHT22;23904;52.322;10.232;2023-05-20T00:39:00;13.20;97.60
38090;DHT22;23904;52.322;10.232;2023-05-20T00:41:26;13.20;97.60
38090;DHT22;23904;52.322;10.232;2023-05-20T00:43:55;13.20;97.60
38090;DHT22;23904;52.322;10.232;2023-05-20T00:46:22;13.10;97.70
38090;DHT22;23904;52.322;10.232;2023-05-20T00:48:49;13.10;97.90
38090;DHT22;23904;52.322;10.232;2023-05-20T00:51:15;13.10;98.10
38090;DHT22;23904;52.322;10.232;2023-05-20T00:53:41;13.00;98.30
38090;DHT22;23904;52.322;10.232;2023-05-20T00:56:08;13.00;98.40
38090;DHT22;23904;52.322;10.232;2023-05-20T00:58:37;13.00;98.60
38090;DHT22;23904;52.322;10.232;2023-05-20T01:01:04;12.90;98.80
38090;DHT22;23904;52.322;10.232;2023-05-20T01:03:31;12.90;98.90
38090;DHT22;23904;52.322;10.232;2023-05-20T01:05:56;12.90;99.50
38090;DHT22;23904;52.322;10.232;2023-05-20T01:08:24;12.80;99.40
38090;DHT22;23904;52.322;10.232;2023-05-20T01:11:02;12.80;99.50
38090;DHT22;23904;52.322;10.232;2023-05-20T01:13:35;12.70;99.70
38090;DHT22;23904;52.322;10.232;2023-05-20T01:16:10;12.70;99.90
38090;DHT22;23904;52.322;10.232;2023-05-20T01:18:37;12.70;99.90
38090;DHT22;23904;52.322;10.232;2023-05-20T01:21:06;12.70;99.90
38090;DHT22;23904;52.322;10.232;2023-05-20T01:23:39;12.50;99.90
38090;DHT22;23904;52.322;10.232;2023-05-20T01:26:06;12.60;99.90
38090;DHT22;23904;52.322;10.232;2023-05-20T01:28:33;12.60;99.90
38090;DHT22;23904;52.322;10.232;2023-05-20T01:31:02;12.50;99.90
38090;DHT22;23904;52.322;10.232;2023-05-20T01:33:30;12.50;99.90
38090;DHT22;23904;52.322;10.232;2023-05-20T01:35:56;12.50;99.90
38090;DHT22;23904;52.322;10.232;2023-05-20T01:38:23;12.50;99.90
38090;DHT22;23904;52.322;10.232;2023-05-20T01:40:49;12.50;99.90
38090;DHT22;23904;52.322;10.232;2023-05-20T01:43:16;12.50;99.90
38090;DHT22;23904;52.322;10.232;2023-05-20T01:45:43;12.50;99.90
38090;DHT22;23904;52.322;10.232;2023-05-20T01:48:11;12.40;99.90
38090;DHT22;23904;52.322;10.232;2023-05-20T01:50:38;12.40;99.90
38090;DHT22;23904;52.322;10.232;2023-05-20T01:53:03;12.40;99.90
38090;DHT22;23904;52.322;10.232;2023-05-20T01:55:30;12.30;99.90
38090;DHT22;23904;52.322;10.232;2023-05-20T01:57:55;12.30;99.90
38090;DHT22;23904;52.322;10.232;2023-05-20T02:00:21;12.30;99.90
38090;DHT22;23904;52.322;10.232;2023-05-20T02:02:46;12.30;99.90
38090;DHT22;23904;52.322;10.232;2023-05-20T02:05:13;12.20;99.90
38090;DHT22;23904;52.322;10.232;2023-05-20T02:07:39;12.20;99.90
38090;DHT22;23904;52.322;10.232;2023-05-20T02:10:05;12.30;99.90
38090;DHT22;23904;52.322;10.232;2023-05-20T02:12:31;12.30;99.90
38090;DHT22;23904;52.322;10.232;2023-05-20T02:14:56;12.30;99.90
38090;DHT22;23904;52.322;10.232;2023-05-20T02:17:22;12.30;99.90
38090;DHT22;23904;52.322;10.232;2023-05-20T02:19:47;12.40;99.90
38090;DHT22;23904;52.322;10.232;2023-05-20T02:22:14;12.40;99.90
38090;DHT22;23904;52.322;10.232;2023-05-20T02:24:40;12.30;99.90
38090;DHT22;23904;52.322;10.232;2023-05-20T02:27:07;12.30;99.90
38090;DHT22;23904;52.322;10.232;2023-05-20T02:29:33;12.30;99.90
38090;DHT22;23904;52.322;10.232;2023-05-20T02:31:58;12.30;99.90
38090;DHT22;23904;52.322;10.232;2023-05-20T02:34:24;12.40;99.90
38090;DHT22;23904;52.322;10.232;2023-05-20T02:36:50;12.40;99.90
38090;DHT22;23904;52.322;10.232;2023-05-20T02:39:17;12.40;99.90
38090;DHT22;23904;52.322;10.232;2023-05-20T02:41:42;12.40;99.90
38090;DHT22;23904;52.322;10.232;2023-05-20T02:44:08;12.30;99.90
38090;DHT22;23904;52.322;10.232;2023-05-20T02:46:33;12.20;99.90
38090;DHT22;23904;52.322;10.232;2023-05-20T02:48:59;12.30;99.90
38090;DHT22;23904;52.322;10.232;2023-05-20T02:51:25;12.30;99.90
38090;DHT22;23904;52.322;10.232;2023-05-20T02:53:50;12.30;99.90
38090;DHT22;23904;52.322;10.232;2023-05-20T02:56:16;12.20;99.90
38090;DHT22;23904;52.322;10.232;2023-05-20T02:58:45;12.20;99.90
38090;DHT22;23904;52.322;10.232;2023-05-20T03:01:11;12.10;99.90
38090;DHT22;23904;52.322;10.232;2023-05-20T03:03:37;12.20;99.90
38090;DHT22;23904;52.322;10.232;2023-05-20T03:06:02;12.20;99.90
38090;DHT22;23904;52.322;10.232;2023-05-20T03:08:28;12.20;99.90
38090;DHT22;23904;52.322;10.232;2023-05-20T03:10:54;12.20;99.90
38090;DHT22;23904;52.322;10.232;2023-05-20T03:13:19;12.20;99.90
38090;DHT22;23904;52.322;10.232;2023-05-20T03:15:45;12.20;99.90
38090;DHT22;23904;52.322;10.232;2023-05-20T03:18:11;12.10;99.90
38090;DHT22;23904;52.322;10.232;2023-05-20T03:20:38;12.20;99.90
38090;DHT22;23904;52.322;10.232;2023-05-20T03:23:04;12.20;99.90
38090;DHT22;23904;52.322;10.232;2023-05-20T03:25:30;12.20;99.90
38090;DHT22;23904;52.322;10.232;2023-05-20T03:27:56;12.20;99.90
38090;DHT22;23904;52.322;10.232;2023-05-20T03:30:25;12.20;99.90
38090;DHT22;23904;52.322;10.232;2023-05-20T03:32:52;12.20;99.90
38090;DHT22;23904;52.322;10.232;2023-05-20T03:35:18;12.20;99.90
38090;DHT22;23904;52.322;10.232;2023-05-20T03:37:44;12.20;99.90
38090;DHT22;23904;52.322;10.232;2023-05-20T03:40:10;12.20;99.90
38090;DHT22;23904;52.322;10.232;2023-05-20T03:42:36;12.20;99.90
38090;DHT22;23904;52.322;10.232;2023-05-20T03:45:02;12.20;99.90
38090;DHT22;23904;52.322;10.232;2023-05-20T03:47:28;12.10;99.90
38090;DHT22;23904;52.322;10.232;2023-05-20T03:49:54;12.20;99.90
38090;DHT22;23904;52.322;10.232;2023-05-20T03:52:19;12.10;99.90
38090;DHT22;23904;52.322;10.232;2023-05-20T03:54:45;12.10;99.90
38090;DHT22;23904;52.322;10.232;2023-05-20T03:57:10;12.10;99.90
38090;DHT22;23904;52.322;10.232;2023-05-20T03:59:36;12.10;99.90
38090;DHT22;23904;52.322;10.232;2023-05-20T04:02:02;12.00;99.90
38090;DHT22;23904;52.322;10.232;2023-05-20T04:04:28;12.00;99.90
38090;DHT22;23904;52.322;10.232;2023-05-20T04:06:54;12.00;99.90
38090;DHT22;23904;52.322;10.232;2023-05-20T04:09:20;12.00;99.90
38090;DHT22;23904;52.322;10.232;2023-05-20T04:11:47;12.00;99.90
38090;DHT22;23904;52.322;10.232;2023-05-20T04:14:13;12.00;99.90
38090;DHT22;23904;52.322;10.232;2023-05-20T04:16:39;12.10;99.90
38090;DHT22;23904;52.322;10.232;2023-05-20T04:19:05;12.10;99.90
38090;DHT22;23904;52.322;10.232;2023-05-20T04:21:31;12.10;99.90
38090;DHT22;23904;52.322;10.232;2023-05-20T04:23:57;12.10;99.90
38090;DHT22;23904;52.322;10.232;2023-05-20T04:26:22;12.10;99.90
38090;DHT22;23904;52.322;10.232;2023-05-20T04:28:48;12.10;99.90
38090;DHT22;23904;52.322;10.232;2023-05-20T04:31:14;12.00;99.90
38090;DHT22;23904;52.322;10.232;2023-05-20T04:33:40;12.10;99.90
38090;DHT22;23904;52.322;10.232;2023-05-20T04:36:06;12.20;99.90
38090;DHT22;23904;52.322;10.232;2023-05-20T04:38:33;12.20;99.90
38090;DHT22;23904;52.322;10.232;2023-05-20T04:41:00;12.10;99.90
38090;DHT22;23904;52.322;10.232;2023-05-20T04:43:26;12.10;99.90
38090;DHT22;23904;52.322;10.232;2023-05-20T04:45:54;12.20;99.90
38090;DHT22;23904;52.322;10.232;2023-05-20T04:48:21;12.20;99.90
38090;DHT22;23904;52.322;10.232;2023-05-20T04:50:47;12.30;99.90
38090;DHT22;23904;52.322;10.232;2023-05-20T04:53:19;12.40;99.90
38090;DHT22;23904;52.322;10.232;2023-05-20T04:55:48;12.40;99.90
38090;DHT22;23904;52.322;10.232;2023-05-20T04:58:18;12.40;99.90
38090;DHT22;23904;52.322;10.232;2023-05-20T05:00:44;12.40;99.90
38090;DHT22;23904;52.322;10.232;2023-05-20T05:03:10;12.40;99.90
38090;DHT22;23904;52.322;10.232;2023-05-20T05:05:39;12.40;99.90
38090;DHT22;23904;52.322;10.232;2023-05-20T05:08:06;12.50;99.90
38090;DHT22;23904;52.322;10.232;2023-05-20T05:10:34;12.50;99.90
38090;DHT22;23904;52.322;10.232;2023-05-20T05:13:00;12.60;99.90
38090;DHT22;23904;52.322;10.232;2023-05-20T05:15:26;12.70;99.90
38090;DHT22;23904;52.322;10.232;2023-05-20T05:17:52;12.60;99.90
38090;DHT22;23904;52.322;10.232;2023-05-20T05:20:18;12.60;99.90
38090;DHT22;23904;52.322;10.232;2023-05-20T05:22:44;12.70;99.90
38090;DHT22;23904;52.322;10.232;2023-05-20T05:25:11;12.60;99.90
38090;DHT22;23904;52.322;10.232;2023-05-20T05:27:37;12.60;99.90
38090;DHT22;23904;52.322;10.232;2023-05-20T05:30:03;12.70;99.90
38090;DHT22;23904;52.322;10.232;2023-05-20T05:32:30;12.70;99.90
38090;DHT22;23904;52.322;10.232;2023-05-20T05:34:56;12.80;99.90
38090;DHT22;23904;52.322;10.232;2023-05-20T05:37:22;12.90;99.90
38090;DHT22;23904;52.322;10.232;2023-05-20T05:39:47;13.00;99.90
38090;DHT22;23904;52.322;10.232;2023-05-20T05:42:13;13.00;99.90
38090;DHT22;23904;52.322;10.232;2023-05-20T05:44:38;13.10;99.90
38090;DHT22;23904;52.322;10.232;2023-05-20T05:47:04;13.10;99.90
38090;DHT22;23904;52.322;10.232;2023-05-20T05:49:31;13.10;99.90
38090;DHT22;23904;52.322;10.232;2023-05-20T05:51:57;13.20;99.90
38090;DHT22;23904;52.322;10.232;2023-05-20T05:54:23;13.20;99.90
38090;DHT22;23904;52.322;10.232;2023-05-20T05:56:50;13.20;99.90
38090;DHT22;23904;52.322;10.232;2023-05-20T05:59:16;13.10;99.90
38090;DHT22;23904;52.322;10.232;2023-05-20T06:01:42;13.10;99.90
38090;DHT22;23904;52.322;10.232;2023-05-20T06:04:07;13.10;99.90
38090;DHT22;23904;52.322;10.232;2023-05-20T06:06:33;13.20;99.90
38090;DHT22;23904;52.322;10.232;2023-05-20T06:08:58;13.30;99.90
38090;DHT22;23904;52.322;10.232;2023-05-20T06:11:24;13.30;99.90
38090;DHT22;23904;52.322;10.232;2023-05-20T06:13:50;13.30;99.90
38090;DHT22;23904;52.322;10.232;2023-05-20T06:16:16;13.40;99.90
38090;DHT22;23904;52.322;10.232;2023-05-20T06:18:44;13.50;99.90
38090;DHT22;23904;52.322;10.232;2023-05-20T06:21:10;13.50;99.90
38090;DHT22;23904;52.322;10.232;2023-05-20T06:23:36;13.70;99.90
38090;DHT22;23904;52.322;10.232;2023-05-20T06:26:01;13.70;99.90
38090;DHT22;23904;52.322;10.232;2023-05-20T06:28:28;13.80;99.90
38090;DHT22;23904;52.322;10.232;2023-05-20T06:30:54;13.90;99.90
38090;DHT22;23904;52.322;10.232;2023-05-20T06:33:22;13.90;99.90
38090;DHT22;23904;52.322;10.232;2023-05-20T06:35:51;13.90;99.90
38090;DHT22;23904;52.322;10.232;2023-05-20T06:38:17;14.00;99.90
38090;DHT22;23904;52.322;10.232;2023-05-20T06:40:43;14.10;99.90
38090;DHT22;23904;52.322;10.232;2023-05-20T06:43:08;14.10;99.90
38090;DHT22;23904;52.322;10.232;2023-05-20T06:45:34;14.20;99.90
38090;DHT22;23904;52.322;10.232;2023-05-20T06:47:59;14.20;99.90
38090;DHT22;23904;52.322;10.232;2023-05-20T06:50:25;14.20;99.90
38090;DHT22;23904;52.322;10.232;2023-05-20T06:52:52;14.20;99.90
38090;DHT22;23904;52.322;10.232;2023-05-20T06:55:18;14.20;99.90
38090;DHT22;23904;52.322;10.232;2023-05-20T06:57:44;14.20;99.90
38090;DHT22;23904;52.322;10.232;2023-05-20T07:00:10;14.40;99.90
38090;DHT22;23904;52.322;10.232;2023-05-20T07:02:37;14.40;99.90
38090;DHT22;23904;52.322;10.232;2023-05-20T07:05:03;14.40;99.90
38090;DHT22;23904;52.322;10.232;2023-05-20T07:07:29;14.40;99.90
38090;DHT22;23904;52.322;10.232;2023-05-20T07:09:56;14.40;99.90
38090;DHT22;23904;52.322;10.232;2023-05-20T07:12:22;14.60;99.90
38090;DHT22;23904;52.322;10.232;2023-05-20T07:14:48;14.70;99.90
38090;DHT22;23904;52.322;10.232;2023-05-20T07:17:14;14.70;99.90
38090;DHT22;23904;52.322;10.232;2023-05-20T07:19:39;14.90;99.90
38090;DHT22;23904;52.322;10.232;2023-05-20T07:22:05;15.00;99.90
38090;DHT22;23904;52.322;10.232;2023-05-20T07:24:30;15.20;99.90
38090;DHT22;23904;52.322;10.232;2023-05-20T07:26:56;15.40;99.90
38090;DHT22;23904;52.322;10.232;2023-05-20T07:29:21;15.70;99.90
38090;DHT22;23904;52.322;10.232;2023-05-20T07:31:47;15.90;99.90
38090;DHT22;23904;52.322;10.232;2023-05-20T07:34:13;16.00;99.90
38090;DHT22;23904;52.322;10.232;2023-05-20T07:36:38;16.00;99.90
38090;DHT22;23904;52.322;10.232;2023-05-20T07:39:04;16.00;99.90
38090;DHT22;23904;52.322;10.232;2023-05-20T07:41:30;16.10;99.90
38090;DHT22;23904;52.322;10.232;2023-05-20T07:43:55;16.30;99.90
38090;DHT22;23904;52.322;10.232;2023-05-20T07:46:21;16.30;99.90
38090;DHT22;23904;52.322;10.232;2023-05-20T07:48:46;16.30;99.90
38090;DHT22;23904;52.322;10.232;2023-05-20T07:51:12;16.40;99.90
38090;DHT22;23904;52.322;10.232;2023-05-20T07:53:37;16.50;99.90
38090;DHT22;23904;52.322;10.232;2023-05-20T07:56:03;16.60;99.90
38090;DHT22;23904;52.322;10.232;2023-05-20T07:58:30;16.80;99.50
38090;DHT22;23904;52.322;10.232;2023-05-20T08:00:56;16.70;99.10
38090;DHT22;23904;52.322;10.232;2023-05-20T08:03:21;16.60;98.80
38090;DHT22;23904;52.322;10.232;2023-05-20T08:05:47;16.40;99.10
38090;DHT22;23904;52.322;10.232;2023-05-20T08:08:13;16.30;99.40
38090;DHT22;23904;52.322;10.232;2023-05-20T08:10:39;16.40;99.30
38090;DHT22;23904;52.322;10.232;2023-05-20T08:13:04;16.30;99.40
38090;DHT22;23904;52.322;10.232;2023-05-20T08:15:30;16.10;99.70
38090;DHT22;23904;52.322;10.232;2023-05-20T08:17:56;16.00;99.90
38090;DHT22;23904;52.322;10.232;2023-05-20T08:20:21;16.00;99.90
38090;DHT22;23904;52.322;10.232;2023-05-20T08:22:47;15.80;99.90
38090;DHT22;23904;52.322;10.232;2023-05-20T08:25:13;15.80;99.90
38090;DHT22;23904;52.322;10.232;2023-05-20T08:27:39;15.80;99.90
38090;DHT22;23904;52.322;10.232;2023-05-20T08:30:06;15.90;99.90
38090;DHT22;23904;52.322;10.232;2023-05-20T08:32:35;15.90;99.90
38090;DHT22;23904;52.322;10.232;2023-05-20T08:35:01;16.20;99.60
38090;DHT22;23904;52.322;10.232;2023-05-20T08:37:28;16.60;99.10
38090;DHT22;23904;52.322;10.232;2023-05-20T08:39:54;16.90;98.90
38090;DHT22;23904;52.322;10.232;2023-05-20T08:42:23;17.30;98.00
38090;DHT22;23904;52.322;10.232;2023-05-20T08:44:51;17.50;96.70
38090;DHT22;23904;52.322;10.232;2023-05-20T08:47:18;17.40;97.00
38090;DHT22;23904;52.322;10.232;2023-05-20T08:49:46;17.30;97.00
38090;DHT22;23904;52.322;10.232;2023-05-20T08:52:17;17.20;96.50
38090;DHT22;23904;52.322;10.232;2023-05-20T08:54:48;17.00;96.80
38090;DHT22;23904;52.322;10.232;2023-05-20T08:57:14;16.80;97.40
38090;DHT22;23904;52.322;10.232;2023-05-20T08:59:44;16.70;97.70
38090;DHT22;23904;52.322;10.232;2023-05-20T09:02:11;16.90;97.80
38090;DHT22;23904;52.322;10.232;2023-05-20T09:04:37;17.20;97.70
38090;DHT22;23904;52.322;10.232;2023-05-20T09:07:03;17.50;97.10
38090;DHT22;23904;52.322;10.232;2023-05-20T09:09:31;18.00;96.40
38090;DHT22;23904;52.322;10.232;2023-05-20T09:11:58;18.40;95.60
38090;DHT22;23904;52.322;10.232;2023-05-20T09:14:25;18.50;95.70
38090;DHT22;23904;52.322;10.232;2023-05-20T09:16:52;18.30;95.30
38090;DHT22;23904;52.322;10.232;2023-05-20T09:19:22;18.20;95.90
38090;DHT22;23904;52.322;10.232;2023-05-20T09:21:48;18.00;95.80
38090;DHT22;23904;52.322;10.232;2023-05-20T09:24:21;17.80;95.90
38090;DHT22;23904;52.322;10.232;2023-05-20T09:26:48;17.80;96.10
38090;DHT22;23904;52.322;10.232;2023-05-20T09:29:14;17.70;96.70
38090;DHT22;23904;52.322;10.232;2023-05-20T09:31:40;17.70;96.30
38090;DHT22;23904;52.322;10.232;2023-05-20T09:34:05;17.60;96.80
38090;DHT22;23904;52.322;10.232;2023-05-20T09:36:33;17.50;96.80
38090;DHT22;23904;52.322;10.232;2023-05-20T09:39:02;17.50;97.10
38090;DHT22;23904;52.322;10.232;2023-05-20T09:41:35;17.30;97.10
38090;DHT22;23904;52.322;10.232;2023-05-20T09:44:04;17.20;97.30
38090;DHT22;23904;52.322;10.232;2023-05-20T09:46:31;17.10;97.60
38090;DHT22;23904;52.322;10.232;2023-05-20T09:48:58;17.10;97.70
38090;DHT22;23904;52.322;10.232;2023-05-20T09:51:25;17.10;97.80
38090;DHT22;23904;52.322;10.232;2023-05-20T09:53:54;17.40;97.70
38090;DHT22;23904;52.322;10.232;2023-05-20T09:56:23;17.80;97.50
38090;DHT22;23904;52.322;10.232;2023-05-20T09:58:49;18.10;97.20
38090;DHT22;23904;52.322;10.232;2023-05-20T10:01:22;18.20;96.60
38090;DHT22;23904;52.322;10.232;2023-05-20T10:03:48;18.30;96.00
38090;DHT22;23904;52.322;10.232;2023-05-20T10:09:23;18.60;95.70
38090;DHT22;23904;52.322;10.232;2023-05-20T10:12:14;18.60;95.80
38090;DHT22;23904;52.322;10.232;2023-05-20T10:15:15;18.40;96.10
38090;DHT22;23904;52.322;10.232;2023-05-20T10:20:46;19.00;95.50
38090;DHT22;23904;52.322;10.232;2023-05-20T10:23:29;18.80;95.50
38090;DHT22;23904;52.322;10.232;2023-05-20T10:25:57;18.50;95.80
38090;DHT22;23904;52.322;10.232;2023-05-20T10:28:32;18.50;96.40
38090;DHT22;23904;52.322;10.232;2023-05-20T10:31:00;18.70;95.90
38090;DHT22;23904;52.322;10.232;2023-05-20T10:33:27;18.70;96.10
38090;DHT22;23904;52.322;10.232;2023-05-20T10:35:57;18.80;95.70
38090;DHT22;23904;52.322;10.232;2023-05-20T10:38:23;18.70;95.80
38090;DHT22;23904;52.322;10.232;2023-05-20T10:40:49;18.50;96.00
38090;DHT22;23904;52.322;10.232;2023-05-20T10:43:16;18.10;96.70
38090;DHT22;23904;52.322;10.232;2023-05-20T10:45:54;17.80;97.00
38090;DHT22;23904;52.322;10.232;2023-05-20T10:48:28;17.80;97.50
38090;DHT22;23904;52.322;10.232;2023-05-20T10:50:57;17.90;97.40
38090;DHT22;23904;52.322;10.232;2023-05-20T10:53:27;17.80;97.10
38090;DHT22;23904;52.322;10.232;2023-05-20T10:55:53;17.90;97.10
38090;DHT22;23904;52.322;10.232;2023-05-20T10:58:22;17.80;97.10
38090;DHT22;23904;52.322;10.232;2023-05-20T11:00:50;17.70;97.50
38090;DHT22;23904;52.322;10.232;2023-05-20T11:03:17;17.70;97.50
38090;DHT22;23904;52.322;10.232;2023-05-20T11:05:46;17.70;97.20
38090;DHT22;23904;52.322;10.232;2023-05-20T11:08:13;17.70;97.60
38090;DHT22;23904;52.322;10.232;2023-05-20T11:10:40;17.60;98.00
38090;DHT22;23904;52.322;10.232;2023-05-20T11:13:06;17.60;97.80
38090;DHT22;23904;52.322;10.232;2023-05-20T11:15:36;17.30;98.10
38090;DHT22;23904;52.322;10.232;2023-05-20T11:18:03;17.10;98.40
38090;DHT22;23904;52.322;10.232;2023-05-20T11:20:30;16.90;99.00
38090;DHT22;23904;52.322;10.232;2023-05-20T11:22:59;16.90;99.10
38090;DHT22;23904;52.322;10.232;2023-05-20T11:25:25;17.00;99.30
38090;DHT22;23904;52.322;10.232;2023-05-20T11:27:52;17.10;99.20
38090;DHT22;23904;52.322;10.232;2023-05-20T11:30:18;17.20;99.10
38090;DHT22;23904;52.322;10.232;2023-05-20T11:32:59;17.30;98.80
38090;DHT22;23904;52.322;10.232;2023-05-20T11:35:26;17.50;99.00
38090;DHT22;23904;52.322;10.232;2023-05-20T11:38:03;17.70;98.40
38090;DHT22;23904;52.322;10.232;2023-05-20T11:40:31;17.80;98.30
38090;DHT22;23904;52.322;10.232;2023-05-20T11:43:01;18.00;98.10
38090;DHT22;23904;52.322;10.232;2023-05-20T11:45:38;18.00;97.50
38090;DHT22;23904;52.322;10.232;2023-05-20T11:48:05;18.00;97.90
38090;DHT22;23904;52.322;10.232;2023-05-20T11:50:36;18.20;97.30
38090;DHT22;23904;52.322;10.232;2023-05-20T11:53:06;18.10;97.90
38090;DHT22;23904;52.322;10.232;2023-05-20T11:55:43;18.10;97.40
38090;DHT22;23904;52.322;10.232;2023-05-20T11:58:11;17.90;97.70
38090;DHT22;23904;52.322;10.232;2023-05-20T12:00:40;17.90;98.00
38090;DHT22;23904;52.322;10.232;2023-05-20T12:03:05;18.20;97.90
38090;DHT22;23904;52.322;10.232;2023-05-20T12:05:31;18.50;97.70
38090;DHT22;23904;52.322;10.232;2023-05-20T12:07:56;18.80;97.20
38090;DHT22;23904;52.322;10.232;2023-05-20T12:10:22;19.20;95.90
38090;DHT22;23904;52.322;10.232;2023-05-20T12:12:48;19.00;96.10
38090;DHT22;23904;52.322;10.232;2023-05-20T12:15:13;18.80;96.70
38090;DHT22;23904;52.322;10.232;2023-05-20T12:17:47;18.70;96.40
38090;DHT22;23904;52.322;10.232;2023-05-20T12:20:15;18.50;96.90
38090;DHT22;23904;52.322;10.232;2023-05-20T12:22:44;18.50;96.50
38090;DHT22;23904;52.322;10.232;2023-05-20T12:25:14;18.20;96.90
38090;DHT22;23904;52.322;10.232;2023-05-20T12:27:42;18.20;97.30
38090;DHT22;23904;52.322;10.232;2023-05-20T12:30:14;18.10;97.20
38090;DHT22;23904;52.322;10.232;2023-05-20T12:32:42;18.00;97.30
38090;DHT22;23904;52.322;10.232;2023-05-20T12:35:09;18.00;97.30
38090;DHT22;23904;52.322;10.232;2023-05-20T12:37:35;17.90;97.50
38090;DHT22;23904;52.322;10.232;2023-05-20T12:40:02;18.10;97.50
38090;DHT22;23904;52.322;10.232;2023-05-20T12:42:37;18.00;97.60
38090;DHT22;23904;52.322;10.232;2023-05-20T12:45:06;18.10;97.70
38090;DHT22;23904;52.322;10.232;2023-05-20T12:47:33;18.30;97.60
38090;DHT22;23904;52.322;10.232;2023-05-20T12:49:59;18.20;97.50
38090;DHT22;23904;52.322;10.232;2023-05-20T12:52:26;18.20;97.60
38090;DHT22;23904;52.322;10.232;2023-05-20T12:54:55;18.10;97.60
38090;DHT22;23904;52.322;10.232;2023-05-20T12:57:24;18.10;97.70
38090;DHT22;23904;52.322;10.232;2023-05-20T12:59:50;17.90;97.70
38090;DHT22;23904;52.322;10.232;2023-05-20T13:02:16;17.90;97.90
38090;DHT22;23904;52.322;10.232;2023-05-20T13:04:42;18.00;97.50
38090;DHT22;23904;52.322;10.232;2023-05-20T13:07:08;18.10;97.40
38090;DHT22;23904;52.322;10.232;2023-05-20T13:09:33;18.20;97.20
38090;DHT22;23904;52.322;10.232;2023-05-20T13:12:00;18.30;97.40
38090;DHT22;23904;52.322;10.232;2023-05-20T13:14:26;18.30;97.30
38090;DHT22;23904;52.322;10.232;2023-05-20T13:16:52;18.50;96.80
38090;DHT22;23904;52.322;10.232;2023-05-20T13:19:20;18.40;97.30
38090;DHT22;23904;52.322;10.232;2023-05-20T13:21:47;18.60;97.10
38090;DHT22;23904;52.322;10.232;2023-05-20T13:24:17;18.70;97.10
38090;DHT22;23904;52.322;10.232;2023-05-20T13:26:42;18.70;96.90
38090;DHT22;23904;52.322;10.232;2023-05-20T13:29:08;18.60;96.70
38090;DHT22;23904;52.322;10.232;2023-05-20T13:31:34;18.60;96.40
38090;DHT22;23904;52.322;10.232;2023-05-20T13:34:00;18.60;96.80
38090;DHT22;23904;52.322;10.232;2023-05-20T13:36:25;18.40;97.20
38090;DHT22;23904;52.322;10.232;2023-05-20T13:38:51;18.30;97.40
38090;DHT22;23904;52.322;10.232;2023-05-20T13:41:17;18.30;97.20
38090;DHT22;23904;52.322;10.232;2023-05-20T13:43:43;18.30;97.10
38090;DHT22;23904;52.322;10.232;2023-05-20T13:46:08;18.20;97.50
38090;DHT22;23904;52.322;10.232;2023-05-20T13:48:34;18.30;97.70
38090;DHT22;23904;52.322;10.232;2023-05-20T13:50:59;18.40;97.50
38090;DHT22;23904;52.322;10.232;2023-05-20T13:53:26;18.60;97.00
38090;DHT22;23904;52.322;10.232;2023-05-20T13:55:52;18.70;96.90
38090;DHT22;23904;52.322;10.232;2023-05-20T13:58:18;18.50;96.90
38090;DHT22;23904;52.322;10.232;2023-05-20T14:00:43;18.40;97.20
38090;DHT22;23904;52.322;10.232;2023-05-20T14:03:09;18.40;97.30
38090;DHT22;23904;52.322;10.232;2023-05-20T14:05:35;18.50;97.40
38090;DHT22;23904;52.322;10.232;2023-05-20T14:08:01;18.40;97.30
38090;DHT22;23904;52.322;10.232;2023-05-20T14:10:27;18.40;97.50
38090;DHT22;23904;52.322;10.232;2023-05-20T14:12:56;18.40;97.60
38090;DHT22;23904;52.322;10.232;2023-05-20T14:15:22;18.30;98.10
38090;DHT22;23904;52.322;10.232;2023-05-20T14:17:48;18.40;97.80
38090;DHT22;23904;52.322;10.232;2023-05-20T14:20:15;18.40;97.70
38090;DHT22;23904;52.322;10.232;2023-05-20T14:22:41;18.30;97.60
38090;DHT22;23904;52.322;10.232;2023-05-20T14:25:06;18.20;97.80
38090;DHT22;23904;52.322;10.232;2023-05-20T14:27:33;18.20;97.60
38090;DHT22;23904;52.322;10.232;2023-05-20T14:29:59;18.20;98.00
38090;DHT22;23904;52.322;10.232;2023-05-20T14:32:24;18.20;98.00
38090;DHT22;23904;52.322;10.232;2023-05-20T14:34:50;18.20;98.20
38090;DHT22;23904;52.322;10.232;2023-05-20T14:37:16;18.20;98.00
38090;DHT22;23904;52.322;10.232;2023-05-20T14:39:42;18.30;98.00
38090;DHT22;23904;52.322;10.232;2023-05-20T14:42:07;18.20;98.50
38090;DHT22;23904;52.322;10.232;2023-05-20T14:44:37;18.20;98.40
38090;DHT22;23904;52.322;10.232;2023-05-20T14:47:03;18.20;98.40
38090;DHT22;23904;52.322;10.232;2023-05-20T14:49:30;18.20;98.40
38090;DHT22;23904;52.322;10.232;2023-05-20T14:51:57;18.20;98.10
38090;DHT22;23904;52.322;10.232;2023-05-20T14:54:23;18.10;98.30
38090;DHT22;23904;52.322;10.232;2023-05-20T14:56:50;18.10;98.60
38090;DHT22;23904;52.322;10.232;2023-05-20T14:59:17;18.00;98.50
38090;DHT22;23904;52.322;10.232;2023-05-20T15:01:43;18.00;98.50
38090;DHT22;23904;52.322;10.232;2023-05-20T15:04:08;18.10;98.70
38090;DHT22;23904;52.322;10.232;2023-05-20T15:06:34;18.00;99.00
38090;DHT22;23904;52.322;10.232;2023-05-20T15:09:01;18.00;98.70
38090;DHT22;23904;52.322;10.232;2023-05-20T15:11:27;18.10;98.90
38090;DHT22;23904;52.322;10.232;2023-05-20T15:13:53;18.20;98.90
38090;DHT22;23904;52.322;10.232;2023-05-20T15:16:18;18.10;99.10
38090;DHT22;23904;52.322;10.232;2023-05-20T15:18:44;18.10;98.80